Time;durP1;ratioP1;P1;durP2;ratioP2;P2;SDS_P1;SDS_P2;PMS_P1;PMS_P2;Temp;Humidity;BMP_temperature;BMP_pressure;BME280_temperature;BME280_humidity;BME280_pressure;Samples;Min_cycle;Max_cycle;Signal;HPM_P1;HPM_P2
2021/07/27 00:00:11;;;;;;;;;;;;;;;7.21;100.00;99386.66;5123360;27;19931;-92
2021/07/27 00:02:37;;;;;;;;;;;;;;;7.18;100.00;99389.38;5121685;27;19908;-94
2021/07/27 00:05:02;;;;;;;;;;;;;;;7.25;100.00;99390.91;5123854;27;19927;-93
2021/07/27 00:07:27;;;;;;;;;;;;;;;7.26;100.00;99392.63;5123351;27;19919;-94
2021/07/27 00:09:53;;;;;;;;;;;;;;;7.20;100.00;99391.06;5122583;27;19918;-93
2021/07/27 00:12:18;;;;;;;;;;;;;;;7.21;100.00;99389.28;5123830;27;19973;-92
2021/07/27 00:14:43;;;;;;;;;;;;;;;7.18;100.00;99392.03;5124321;27;19908;-93
2021/07/27 00:17:09;;;;;;;;;;;;;;;7.20;100.00;99395.47;5124164;27;19907;-93
2021/07/27 00:19:34;;;;;;;;;;;;;;;7.18;100.00;99400.81;5123815;27;19960;-92
2021/07/27 00:21:59;;;;;;;;;;;;;;;7.15;100.00;99400.03;5123634;27;19945;-93
2021/07/27 00:24:26;;;;;;;;;;;;;;;7.19;100.00;99402.50;5123922;27;19915;-94
2021/07/27 00:26:54;;;;;;;;;;;;;;;7.16;100.00;99394.72;5124046;27;19908;-93
2021/07/27 04:53:58;;;;;;;;;;;;;;;6.61;100.00;99344.81;5220760;23;19933;-93
2021/07/27 04:56:23;;;;;;;;;;;;;;;6.64;100.00;99343.84;5022304;28;19964;-92
2021/07/27 04:58:49;;;;;;;;;;;;;;;6.58;100.00;99339.63;5022827;28;19912;-92
2021/07/27 05:01:14;;;;;;;;;;;;;;;6.62;100.00;99332.50;5022527;28;19964;-93
2021/07/27 05:06:20;;;;;;;;;;;;;;;6.66;100.00;99334.97;5357749;22;19916;-91
2021/07/27 05:08:49;;;;;;;;;;;;;;;6.67;100.00;99336.69;5003496;28;19969;-91
2021/07/27 05:11:15;;;;;;;;;;;;;;;6.95;100.00;99334.88;5033401;28;19932;-90
2021/07/27 05:13:40;;;;;;;;;;;;;;;6.95;100.00;99345.41;5032639;28;20296;-94
2021/07/27 05:16:06;;;;;;;;;;;;;;;7.00;100.00;99343.47;5007298;28;19939;-91
2021/07/27 05:18:31;;;;;;;;;;;;;;;6.90;100.00;99343.78;5018930;28;20020;-90
2021/07/27 05:21:05;;;;;;;;;;;;;;;6.97;100.00;99348.84;5019307;28;19960;-92
2021/07/27 05:23:30;;;;;;;;;;;;;;;6.91;100.00;99352.56;5001819;28;20292;-92
2021/07/27 05:25:56;;;;;;;;;;;;;;;6.96;100.00;99342.72;5001846;28;19921;-89
2021/07/27 05:28:21;;;;;;;;;;;;;;;6.86;100.00;99347.47;5001642;28;19917;-89
2021/07/27 05:30:46;;;;;;;;;;;;;;;6.99;100.00;99347.91;5001403;28;19925;-90
2021/07/27 05:33:12;;;;;;;;;;;;;;;7.58;100.00;99333.44;5000864;28;19922;-89
2021/07/27 05:35:37;;;;;;;;;;;;;;;7.67;100.00;99326.09;5000169;28;19931;-89
2021/07/27 05:38:06;;;;;;;;;;;;;;;7.56;100.00;99326.50;5000944;28;19967;-90
2021/07/27 05:40:31;;;;;;;;;;;;;;;7.45;100.00;99337.44;5000460;28;19942;-88
2021/07/27 05:42:59;;;;;;;;;;;;;;;7.42;100.00;99333.16;5000054;28;19944;-90
2021/07/27 05:45:25;;;;;;;;;;;;;;;7.34;100.00;99331.72;5001230;28;20193;-89
2021/07/27 05:47:51;;;;;;;;;;;;;;;7.30;100.00;99336.25;5001357;28;19921;-90
2021/07/27 05:50:18;;;;;;;;;;;;;;;7.35;100.00;99336.94;5001467;28;19921;-88
2021/07/27 05:52:44;;;;;;;;;;;;;;;8.05;100.00;99332.53;5019001;28;19921;-88
2021/07/27 05:55:09;;;;;;;;;;;;;;;8.08;100.00;99339.47;5018658;28;19917;-88
2021/07/27 05:57:35;;;;;;;;;;;;;;;7.92;100.00;99332.16;5018231;28;19957;-88
2021/07/27 06:00:00;;;;;;;;;;;;;;;8.19;100.00;99342.53;5017550;28;19918;-88
2021/07/27 06:02:26;;;;;;;;;;;;;;;8.17;100.00;99339.97;5016896;28;19987;-88
2021/07/27 06:04:51;;;;;;;;;;;;;;;8.29;100.00;99346.50;5000193;28;19921;-88
2021/07/27 06:07:16;;;;;;;;;;;;;;;8.77;100.00;99349.84;5000216;28;20308;-89
2021/07/27 06:09:42;;;;;;;;;;;;;;;8.56;100.00;99346.34;4999608;28;19933;-89
2021/07/27 06:12:08;;;;;;;;;;;;;;;8.31;100.00;99357.88;5000381;28;19960;-89
2021/07/27 06:14:33;;;;;;;;;;;;;;;8.24;100.00;99360.84;5000383;28;19992;-89
2021/07/27 06:16:58;;;;;;;;;;;;;;;8.08;100.00;99363.22;5000014;28;19948;-89
2021/07/27 06:19:25;;;;;;;;;;;;;;;7.97;100.00;99347.81;5000571;28;19922;-89
2021/07/27 06:21:50;;;;;;;;;;;;;;;7.89;100.00;99344.59;5000973;28;20316;-91
2021/07/27 06:24:17;;;;;;;;;;;;;;;7.80;100.00;99338.78;5001371;28;19925;-90
2021/07/27 06:26:42;;;;;;;;;;;;;;;7.71;100.00;99349.66;5000328;28;19927;-89
2021/07/27 06:29:08;;;;;;;;;;;;;;;7.68;100.00;99347.16;5016104;28;20013;-89
2021/07/27 06:31:34;;;;;;;;;;;;;;;7.66;100.00;99349.00;5017129;28;20375;-89
2021/07/27 06:33:59;;;;;;;;;;;;;;;7.59;100.00;99350.13;5003610;28;19922;-90
2021/07/27 06:36:24;;;;;;;;;;;;;;;7.59;100.00;99347.50;5020697;28;19925;-90
2021/07/27 06:38:50;;;;;;;;;;;;;;;7.53;100.00;99353.88;5004156;28;20216;-88
2021/07/27 06:41:15;;;;;;;;;;;;;;;7.50;100.00;99347.81;5020320;28;19983;-89
2021/07/27 06:43:41;;;;;;;;;;;;;;;7.43;100.00;99347.19;5003588;28;20003;-89
2021/07/27 06:46:09;;;;;;;;;;;;;;;7.48;100.00;99354.94;5021101;28;19933;-89
2021/07/27 06:48:37;;;;;;;;;;;;;;;7.42;100.00;99356.03;5004254;28;20012;-90
2021/07/27 06:51:17;;;;;;;;;;;;;;;7.44;100.00;99360.31;5003756;28;19940;-90
2021/07/27 06:53:43;;;;;;;;;;;;;;;7.45;100.00;99367.31;5021114;28;19949;-89
2021/07/27 06:56:09;;;;;;;;;;;;;;;7.41;100.00;99376.25;5003646;28;19960;-90
2021/07/27 06:58:35;;;;;;;;;;;;;;;7.35;100.00;99375.63;5003817;28;19948;-90
2021/07/27 07:01:01;;;;;;;;;;;;;;;7.34;100.00;99380.03;5003163;28;19983;-91
2021/07/27 07:03:26;;;;;;;;;;;;;;;7.32;100.00;99371.31;5003942;28;19975;-92
2021/07/27 07:05:52;;;;;;;;;;;;;;;7.36;100.00;99372.94;5004805;28;20286;-92
2021/07/27 07:08:17;;;;;;;;;;;;;;;7.35;100.00;99365.91;5004107;28;19932;-92
2021/07/27 07:10:42;;;;;;;;;;;;;;;7.32;100.00;99363.41;5003726;28;19991;-92
2021/07/27 07:13:08;;;;;;;;;;;;;;;7.36;100.00;99367.66;5004055;28;19922;-92
2021/07/27 07:15:33;;;;;;;;;;;;;;;7.32;100.00;99371.31;5003998;28;20025;-92
2021/07/27 07:17:59;;;;;;;;;;;;;;;7.32;100.00;99360.75;5003984;28;20101;-93
2021/07/27 07:20:27;;;;;;;;;;;;;;;7.34;100.00;99368.63;5004403;28;20277;-93
2021/07/27 08:06:42;;;;;;;;;;;;;;;7.18;100.00;99376.22;5019017;28;19925;-91
2021/07/27 08:09:07;;;;;;;;;;;;;;;7.07;100.00;99371.34;5020344;28;19940;-91
2021/07/27 08:11:33;;;;;;;;;;;;;;;7.11;100.00;99370.31;5021515;28;19935;-93
2021/07/27 08:13:58;;;;;;;;;;;;;;;7.04;100.00;99369.66;5005140;28;19980;-92
2021/07/27 08:16:24;;;;;;;;;;;;;;;7.15;100.00;99376.31;5004440;28;19933;-91
2021/07/27 08:18:53;;;;;;;;;;;;;;;7.11;100.00;99377.34;5013897;28;19921;-92
2021/07/27 08:21:26;;;;;;;;;;;;;;;7.09;100.00;99375.63;5021456;28;19921;-92
2021/07/27 08:23:52;;;;;;;;;;;;;;;7.11;100.00;99377.34;5020929;28;19933;-92
2021/07/27 08:26:18;;;;;;;;;;;;;;;7.03;100.00;99372.34;5019687;28;19922;-92
2021/07/27 08:28:45;;;;;;;;;;;;;;;7.06;100.00;99380.16;5003586;28;20333;-91
2021/07/27 08:31:10;;;;;;;;;;;;;;;6.98;100.00;99375.16;5001733;28;20015;-91
2021/07/27 08:33:36;;;;;;;;;;;;;;;7.02;100.00;99381.16;5021109;28;19933;-92
2021/07/27 08:36:17;;;;;;;;;;;;;;;7.02;100.00;99379.41;5021360;28;19931;-92
2021/07/27 08:38:42;;;;;;;;;;;;;;;7.06;100.00;99369.63;5021634;28;20348;-91
2021/07/27 08:41:08;;;;;;;;;;;;;;;7.07;100.00;99371.34;5021728;28;19917;-92
2021/07/27 08:43:33;;;;;;;;;;;;;;;7.13;100.00;99368.47;5020658;28;19941;-92
2021/07/27 08:45:59;;;;;;;;;;;;;;;7.07;100.00;99366.06;5004290;28;19932;-90
2021/07/27 08:48:25;;;;;;;;;;;;;;;7.12;100.00;99371.19;5004117;28;20012;-93
2021/07/27 08:50:50;;;;;;;;;;;;;;;7.07;100.00;99371.34;5020247;28;20023;-92
2021/07/27 08:53:16;;;;;;;;;;;;;;;7.08;100.00;99371.28;5004461;28;19925;-92
2021/07/27 08:55:42;;;;;;;;;;;;;;;7.04;100.00;99372.28;5019880;28;19929;-93
2021/07/27 08:58:07;;;;;;;;;;;;;;;7.05;100.00;99376.66;5021081;28;19945;-90
2021/07/27 09:00:33;;;;;;;;;;;;;;;7.05;100.00;99379.31;5003763;28;20284;-90
2021/07/27 09:03:11;;;;;;;;;;;;;;;7.06;100.00;99374.88;5021769;28;19932;-91
2021/07/27 09:05:37;;;;;;;;;;;;;;;7.10;100.00;99376.50;5001907;28;19921;-89
2021/07/27 09:08:08;;;;;;;;;;;;;;;7.02;100.00;99376.78;5019380;28;20260;-91
2021/07/27 09:10:33;;;;;;;;;;;;;;;7.11;100.00;99377.34;5001867;28;19929;-92
2021/07/27 09:12:59;;;;;;;;;;;;;;;7.07;100.00;99380.09;5002522;28;19987;-90
2021/07/27 09:15:25;;;;;;;;;;;;;;;7.02;100.00;99379.41;5002196;28;19928;-91
2021/07/27 09:17:51;;;;;;;;;;;;;;;7.09;100.00;99386.16;5002477;28;19976;-92
2021/07/27 09:20:36;;;;;;;;;;;;;;;7.07;100.00;99389.78;5003314;28;19925;-91
2021/07/27 09:23:02;;;;;;;;;;;;;;;7.14;100.00;99383.38;5003211;28;20304;-90
2021/07/27 09:25:29;;;;;;;;;;;;;;;7.09;100.00;99386.16;5020847;28;19933;-92
2021/07/27 09:28:02;;;;;;;;;;;;;;;7.18;100.00;99390.25;5004092;28;19922;-92
2021/07/27 09:30:29;;;;;;;;;;;;;;;7.11;100.00;99390.53;5020662;28;20461;-92
2021/07/27 09:32:54;;;;;;;;;;;;;;;7.09;100.00;99388.78;5020529;28;20012;-91
2021/07/27 09:35:22;;;;;;;;;;;;;;;7.15;100.00;99390.38;5001485;28;20288;-92
2021/07/27 09:38:02;;;;;;;;;;;;;;;7.11;100.00;99386.09;5020412;28;19922;-92
2021/07/27 09:40:27;;;;;;;;;;;;;;;7.11;100.00;99388.75;5000283;28;19926;-92
2021/07/27 09:42:53;;;;;;;;;;;;;;;7.17;100.00;99390.31;5018220;28;19944;-92
2021/07/27 09:45:18;;;;;;;;;;;;;;;7.14;100.00;99393.06;5000037;28;19930;-93
2021/07/27 09:47:48;;;;;;;;;;;;;;;7.10;100.00;99384.41;5018618;28;19936;-92
2021/07/27 09:50:15;;;;;;;;;;;;;;;7.12;100.00;99381.72;5002100;28;20007;-92
2021/07/27 09:52:40;;;;;;;;;;;;;;;7.14;100.00;99385.16;5002356;28;19922;-90
2021/07/27 09:55:06;;;;;;;;;;;;;;;7.14;100.00;99377.25;5001568;28;19929;-90
2021/07/27 09:57:32;;;;;;;;;;;;;;;7.15;100.00;99376.31;5001518;28;19931;-91
2021/07/27 09:59:57;;;;;;;;;;;;;;;7.16;100.00;99375.41;5002307;28;19948;-91
2021/07/27 10:02:23;;;;;;;;;;;;;;;7.15;100.00;99379.84;5019407;28;19921;-90
2021/07/27 10:04:53;;;;;;;;;;;;;;;7.12;100.00;99377.31;5013140;28;19930;-90
2021/07/27 10:07:29;;;;;;;;;;;;;;;7.12;100.00;99379.09;5001894;28;19949;-91
2021/07/27 10:10:04;;;;;;;;;;;;;;;7.10;100.00;99379.16;5006963;28;19928;-91
2021/07/27 10:12:32;;;;;;;;;;;;;;;7.17;100.00;99377.16;5002608;28;19921;-91
2021/07/27 10:15:07;;;;;;;;;;;;;;;7.14;100.00;99382.53;5006348;28;19918;-91
2021/07/27 10:17:33;;;;;;;;;;;;;;;7.13;100.00;99375.53;5003009;28;20322;-91
2021/07/27 10:19:59;;;;;;;;;;;;;;;7.17;100.00;99374.50;5005594;28;19999;-91
2021/07/27 10:22:30;;;;;;;;;;;;;;;7.18;100.00;99378.84;5000842;28;19921;-90
2021/07/27 10:24:57;;;;;;;;;;;;;;;7.19;100.00;99377.94;5001902;28;19950;-90
2021/07/27 10:27:26;;;;;;;;;;;;;;;7.14;100.00;99377.25;5006004;28;20038;-91
2021/07/27 10:29:52;;;;;;;;;;;;;;;7.17;100.00;99379.78;5005502;28;19936;-91
2021/07/27 10:32:24;;;;;;;;;;;;;;;7.15;100.00;99371.94;5003800;28;19918;-90
2021/07/27 10:34:52;;;;;;;;;;;;;;;7.14;100.00;99377.25;5020167;28;20003;-91
2021/07/27 10:37:18;;;;;;;;;;;;;;;7.11;100.00;99372.94;5005008;28;19932;-91
2021/07/27 10:39:57;;;;;;;;;;;;;;;7.16;100.00;99376.25;4989463;28;19922;-91
2021/07/27 10:42:24;;;;;;;;;;;;;;;7.12;100.00;99369.41;4990335;28;19922;-90
2021/07/27 10:44:51;;;;;;;;;;;;;;;7.17;100.00;99364.81;5004120;28;19932;-90
2021/07/27 10:47:23;;;;;;;;;;;;;;;7.16;100.00;99359.59;4997229;28;19937;-91
2021/07/27 10:50:21;;;;;;;;;;;;;;;7.20;100.00;99346.28;4995900;28;19936;-93
2021/07/27 10:52:48;;;;;;;;;;;;;;;7.22;100.00;99343.56;4985757;28;20219;-90
2021/07/27 10:55:14;;;;;;;;;;;;;;;7.18;100.00;99356.00;5019266;28;20003;-90
2021/07/27 10:57:50;;;;;;;;;;;;;;;7.17;100.00;99356.91;5006091;28;19961;-92
2021/07/27 11:00:16;;;;;;;;;;;;;;;7.20;100.00;99356.81;5022481;28;19989;-91
2021/07/27 11:02:42;;;;;;;;;;;;;;;7.25;100.00;99360.13;5005137;28;19964;-90
2021/07/27 11:05:09;;;;;;;;;;;;;;;7.23;100.00;99350.56;5016027;28;19922;-92
2021/07/27 11:07:35;;;;;;;;;;;;;;;7.22;100.00;99349.69;5006504;28;20365;-91
2021/07/27 11:10:00;;;;;;;;;;;;;;;7.21;100.00;99349.75;5003186;28;19930;-92
2021/07/27 11:12:26;;;;;;;;;;;;;;;7.18;100.00;99347.22;5021337;28;20323;-92
2021/07/27 11:15:02;;;;;;;;;;;;;;;7.21;100.00;99348.00;5001908;28;19930;-92
2021/07/27 11:17:27;;;;;;;;;;;;;;;7.22;100.00;99333.03;5003688;28;19926;-91
2021/07/27 11:19:54;;;;;;;;;;;;;;;7.22;100.00;99327.78;5005647;28;19932;-92
2021/07/27 11:22:20;;;;;;;;;;;;;;;7.22;100.00;99317.22;5022818;28;19928;-92
2021/07/27 11:24:49;;;;;;;;;;;;;;;7.27;100.00;99325.81;5020533;28;19921;-91
2021/07/27 11:27:16;;;;;;;;;;;;;;;7.24;100.00;99325.94;5005930;28;20249;-91
2021/07/27 11:29:41;;;;;;;;;;;;;;;7.20;100.00;99317.28;5008334;28;19964;-93
2021/07/27 11:32:13;;;;;;;;;;;;;;;7.23;100.00;99325.06;5006527;28;19940;-92
2021/07/27 11:34:38;;;;;;;;;;;;;;;7.27;100.00;99315.28;5007566;28;19932;-91
2021/07/27 11:37:04;;;;;;;;;;;;;;;7.21;100.00;99302.31;5010204;28;19957;-92
2021/07/27 11:39:38;;;;;;;;;;;;;;;7.25;100.00;99307.44;5007546;28;19940;-92
2021/07/27 11:42:06;;;;;;;;;;;;;;;7.26;100.00;99295.13;5026261;28;19921;-92
2021/07/27 11:44:31;;;;;;;;;;;;;;;7.29;100.00;99297.63;5012954;28;19933;-92
2021/07/27 11:46:58;;;;;;;;;;;;;;;7.27;100.00;99300.34;5024278;28;19921;-91
2021/07/27 11:49:33;;;;;;;;;;;;;;;7.23;100.00;99295.25;5016059;28;20316;-91
2021/07/27 11:52:00;;;;;;;;;;;;;;;7.27;100.00;99287.16;5007999;28;19921;-91
2021/07/27 11:54:26;;;;;;;;;;;;;;;7.26;100.00;99287.22;5030541;28;19921;-91
2021/07/27 11:56:54;;;;;;;;;;;;;;;7.22;100.00;99285.59;5007057;28;19921;-90
2021/07/27 11:59:26;;;;;;;;;;;;;;;7.30;100.00;99291.44;5023890;28;19925;-91
2021/07/27 12:01:52;;;;;;;;;;;;;;;7.19;100.00;99286.56;5006013;28;19932;-92
2021/07/27 12:04:19;;;;;;;;;;;;;;;7.18;100.00;99278.72;5004969;28;19922;-92
2021/07/27 12:06:51;;;;;;;;;;;;;;;7.21;100.00;99282.13;5006554;28;20196;-92
2021/07/27 12:09:18;;;;;;;;;;;;;;;7.19;100.00;99276.03;5009521;28;19936;-90
2021/07/27 12:11:43;;;;;;;;;;;;;;;7.21;100.00;99270.69;5024951;28;19921;-93
2021/07/27 12:14:09;;;;;;;;;;;;;;;7.19;100.00;99267.28;5023882;28;19933;-92
2021/07/27 12:16:35;;;;;;;;;;;;;;;7.16;100.00;99262.13;5007592;28;19928;-93
2021/07/27 12:19:00;;;;;;;;;;;;;;;7.17;100.00;99259.41;5008268;28;19921;-91
2021/07/27 12:21:28;;;;;;;;;;;;;;;7.16;100.00;99262.13;5004845;28;19968;-91
2021/07/27 12:23:53;;;;;;;;;;;;;;;7.19;100.00;99259.38;5005195;28;19922;-90
2021/07/27 12:26:18;;;;;;;;;;;;;;;7.20;100.00;99251.41;5026017;28;19940;-91
2021/07/27 12:28:44;;;;;;;;;;;;;;;7.19;100.00;99260.22;5026408;28;19944;-92
2021/07/27 12:31:23;;;;;;;;;;;;;;;;;;;;;
2021/07/27 12:33:49;;;;;;;;;;;;;;;7.17;100.00;99266.47;5032289;28;20000;-92
2021/07/27 12:36:15;;;;;;;;;;;;;;;7.23;100.00;99269.75;5026259;28;19964;-92
2021/07/27 12:38:41;;;;;;;;;;;;;;;7.15;100.00;99274.44;5007968;28;20376;-91
2021/07/27 12:41:06;;;;;;;;;;;;;;;7.19;100.00;99270.75;5008077;28;19936;-92
2021/07/27 12:43:35;;;;;;;;;;;;;;;7.12;100.00;99274.56;5024498;28;19933;-91
2021/07/27 12:46:03;;;;;;;;;;;;;;;7.18;100.00;99276.06;5007141;28;19921;-93
2021/07/27 12:48:35;;;;;;;;;;;;;;;7.19;100.00;99275.19;5021970;28;19918;-91
2021/07/27 12:51:03;;;;;;;;;;;;;;;7.15;100.00;99284.97;5007230;28;19941;-91
2021/07/27 12:53:29;;;;;;;;;;;;;;;7.15;100.00;99323.63;5025541;28;19963;-92
2021/07/27 12:55:55;;;;;;;;;;;;;;;7.13;100.00;99328.09;5011039;28;19922;-92
2021/07/27 13:01:12;;;;;;;;;;;;;;;7.08;100.00;99323.88;4998233;28;20301;-93
2021/07/27 13:03:38;;;;;;;;;;;;;;;7.00;100.00;99319.78;4995858;28;19922;-94
2021/07/27 13:06:03;;;;;;;;;;;;;;;7.04;100.00;99316.97;5008454;28;19932;-91
2021/07/27 13:08:35;;;;;;;;;;;;;;;7.05;100.00;99315.19;5016263;28;19980;-93
2021/07/27 13:11:00;;;;;;;;;;;;;;;6.98;100.00;99306.66;5020253;28;19933;-91
2021/07/27 13:13:26;;;;;;;;;;;;;;;6.99;100.00;99315.41;5010686;28;19921;-91
2021/07/27 13:15:51;;;;;;;;;;;;;;;7.05;100.00;99309.91;5023732;28;19957;-92
2021/07/27 13:18:17;;;;;;;;;;;;;;;7.05;100.00;99304.66;5006451;28;19929;-92
2021/07/27 13:20:43;;;;;;;;;;;;;;;7.04;100.00;99303.81;5006257;28;19921;-92
2021/07/27 13:23:11;;;;;;;;;;;;;;;6.94;100.00;99298.91;5006283;28;19996;-92
2021/07/27 13:25:37;;;;;;;;;;;;;;;7.04;100.00;99292.41;5005631;28;19921;-94
2021/07/27 13:28:02;;;;;;;;;;;;;;;6.97;100.00;99297.03;5006026;28;19927;-91
2021/07/27 13:30:28;;;;;;;;;;;;;;;7.00;100.00;99299.53;5008223;28;19984;-93
2021/07/27 13:32:54;;;;;;;;;;;;;;;6.95;100.00;99288.31;5004986;28;20389;-92
2021/07/27 13:35:19;;;;;;;;;;;;;;;6.89;100.00;99283.28;5005519;28;19922;-93
2021/07/27 15:41:25;;;;;;;;;;;;;;;7.07;100.00;99251.00;5103883;23;20048;-91
2021/07/27 15:43:50;;;;;;;;;;;;;;;7.03;100.00;99249.38;5004660;28;20297;-90
2021/07/27 15:46:16;;;;;;;;;;;;;;;7.06;100.00;99251.06;5019856;28;19928;-90
2021/07/27 15:48:42;;;;;;;;;;;;;;;7.13;100.00;99239.34;5006354;28;19932;-90
2021/07/27 15:51:07;;;;;;;;;;;;;;;7.09;100.00;99249.16;5003627;28;19926;-89
2021/07/27 15:53:33;;;;;;;;;;;;;;;7.11;100.00;99240.34;5001072;28;19975;-92
2021/07/27 15:56:01;;;;;;;;;;;;;;;7.08;100.00;99229.03;5004504;28;19922;-93
2021/07/27 15:58:29;;;;;;;;;;;;;;;7.04;100.00;99227.41;5004642;28;19922;-93
2021/07/27 16:00:57;;;;;;;;;;;;;;;7.12;100.00;99229.75;5004695;28;19930;-92
2021/07/27 16:03:23;;;;;;;;;;;;;;;7.11;100.00;99220.13;5004833;28;19921;-91
2021/07/27 16:05:48;;;;;;;;;;;;;;;7.12;100.00;99224.50;5004985;28;19921;-91
2021/07/27 16:08:34;;;;;;;;;;;;;;;7.09;100.00;99216.69;5005340;28;19921;-92
2021/07/27 16:10:59;;;;;;;;;;;;;;;7.09;100.00;99217.56;5018086;28;20024;-91
2021/07/27 16:13:28;;;;;;;;;;;;;;;7.13;100.00;99227.97;4998248;28;20286;-90
2021/07/27 16:15:54;;;;;;;;;;;;;;;7.07;100.00;99234.34;5003215;28;19921;-91
2021/07/27 16:18:19;;;;;;;;;;;;;;;7.15;100.00;99234.91;5004020;28;19944;-93
2021/07/27 16:20:45;;;;;;;;;;;;;;;7.17;100.00;99229.59;5004222;28;20305;-91
2021/07/27 16:23:10;;;;;;;;;;;;;;;7.12;100.00;99229.75;5003505;28;19929;-91
2021/07/27 16:25:36;;;;;;;;;;;;;;;7.15;100.00;99239.31;5020228;28;19956;-90
2021/07/27 16:28:02;;;;;;;;;;;;;;;7.13;100.00;99236.72;5001747;28;19921;-90
2021/07/27 16:30:28;;;;;;;;;;;;;;;7.12;100.00;99247.34;5003121;28;19972;-91
2021/07/27 16:32:54;;;;;;;;;;;;;;;7.11;100.00;99245.63;5003751;28;19921;-90
2021/07/27 16:35:19;;;;;;;;;;;;;;;7.11;100.00;99243.00;5003702;28;19921;-93
2021/07/27 16:37:45;;;;;;;;;;;;;;;7.07;100.00;99229.94;5004486;28;19921;-91
2021/07/27 16:40:13;;;;;;;;;;;;;;;7.09;100.00;99241.25;5002471;28;19922;-91
2021/07/27 16:42:39;;;;;;;;;;;;;;;7.14;100.00;99225.28;5003454;28;19922;-91
2021/07/27 16:45:05;;;;;;;;;;;;;;;7.17;100.00;99233.06;5021266;28;19961;-90
2021/07/27 16:47:31;;;;;;;;;;;;;;;7.14;100.00;99234.97;5003902;28;19929;-91
2021/07/27 16:49:56;;;;;;;;;;;;;;;7.13;100.00;99227.97;5005219;28;20343;-90
2021/07/27 16:52:23;;;;;;;;;;;;;;;7.14;100.00;99220.00;5004255;28;19921;-91
2021/07/27 16:54:49;;;;;;;;;;;;;;;7.13;100.00;99220.06;5020800;28;19928;-91
2021/07/27 16:57:24;;;;;;;;;;;;;;;7.18;100.00;99223.38;5002444;28;19921;-91
2021/07/27 16:59:56;;;;;;;;;;;;;;;7.17;100.00;99224.31;5002993;28;20208;-92
2021/07/27 17:02:22;;;;;;;;;;;;;;;7.18;100.00;99228.66;5001704;28;19922;-91
2021/07/27 17:04:51;;;;;;;;;;;;;;;7.12;100.00;99224.50;5000678;28;19987;-91
2021/07/27 17:07:17;;;;;;;;;;;;;;;7.18;100.00;99223.38;5001464;28;19987;-90
2021/07/27 17:10:06;;;;;;;;;;;;;;;7.14;100.00;99222.66;4996425;28;20316;-91
2021/07/27 17:12:31;;;;;;;;;;;;;;;7.09;100.00;99228.09;4998995;28;19917;-90
2021/07/27 17:14:57;;;;;;;;;;;;;;;7.10;100.00;99228.97;4999395;28;20000;-92
2021/07/27 17:17:22;;;;;;;;;;;;;;;7.12;100.00;99229.75;4999453;28;20311;-90
2021/07/27 17:19:48;;;;;;;;;;;;;;;7.18;100.00;99237.44;5000454;28;20277;-91
2021/07/27 17:22:13;;;;;;;;;;;;;;;7.17;100.00;99240.13;5003681;28;19921;-91
2021/07/27 17:24:42;;;;;;;;;;;;;;;7.08;100.00;99247.47;5056693;22;19936;-91
2021/07/27 17:27:14;;;;;;;;;;;;;;;7.12;100.00;99231.53;5003517;28;19921;-92
2021/07/27 17:37:36;;;;;;;;;;;;;;;7.02;100.00;99254.72;5015293;28;19963;-92
2021/07/27 17:40:04;;;;;;;;;;;;;;;7.03;100.00;99261.72;5003083;28;19952;-91
2021/07/27 17:42:32;;;;;;;;;;;;;;;7.00;100.00;99260.03;5008732;28;19926;-91
2021/07/27 17:45:02;;;;;;;;;;;;;;;7.01;100.00;99267.03;5013252;28;19949;-91
2021/07/27 17:47:30;;;;;;;;;;;;;;;7.03;100.00;99265.19;5009938;28;19945;-91
2021/07/27 17:49:58;;;;;;;;;;;;;;;6.98;100.00;99268.94;5000422;28;19926;-92
2021/07/27 17:52:24;;;;;;;;;;;;;;;7.03;100.00;99272.25;5001716;28;20549;-91
2021/07/27 17:54:51;;;;;;;;;;;;;;;6.97;100.00;99285.63;5018054;28;19921;-90
2021/07/27 17:57:16;;;;;;;;;;;;;;;7.00;100.00;99278.47;5000795;28;19922;-91
2021/07/27 17:59:44;;;;;;;;;;;;;;;6.99;100.00;99268.00;4997190;28;20325;-92
2021/07/27 18:02:12;;;;;;;;;;;;;;;7.00;100.00;99275.84;5001146;28;20004;-92
2021/07/27 18:04:37;;;;;;;;;;;;;;;7.04;100.00;99281.88;5005679;28;19932;-92
2021/07/27 18:07:04;;;;;;;;;;;;;;;7.04;100.00;99282.72;5003017;28;19909;-91
2021/07/27 18:09:32;;;;;;;;;;;;;;;6.98;100.00;99293.47;5001127;28;20217;-90
2021/07/27 18:12:01;;;;;;;;;;;;;;;6.99;100.00;99289.94;5001086;28;19929;-90
2021/07/27 18:14:29;;;;;;;;;;;;;;;6.95;100.00;99279.56;5001135;28;19932;-91
2021/07/27 18:16:54;;;;;;;;;;;;;;;6.90;100.00;99282.38;5002867;28;20052;-89
2021/07/27 18:19:20;;;;;;;;;;;;;;;6.96;100.00;99292.69;5008270;28;20007;-90
2021/07/27 18:21:46;;;;;;;;;;;;;;;6.95;100.00;99304.13;5002071;28;20437;-89
2021/07/27 18:24:12;;;;;;;;;;;;;;;6.95;100.00;99305.91;5002738;28;19988;-91
2021/07/27 18:29:43;;;;;;;;;;;;;;;6.97;100.00;99312.81;4998257;28;20323;-90
2021/07/27 18:32:08;;;;;;;;;;;;;;;6.92;100.00;99320.03;5011974;28;19922;-91
2021/07/27 18:34:34;;;;;;;;;;;;;;;7.03;100.00;99306.50;5005319;28;19942;-90
2021/07/27 18:37:00;;;;;;;;;;;;;;;6.96;100.00;99305.00;5002209;28;19933;-91
2021/07/27 18:39:26;;;;;;;;;;;;;;;7.01;100.00;99293.38;5004800;28;19968;-90
2021/07/27 18:41:53;;;;;;;;;;;;;;;6.95;100.00;99293.59;5004528;28;19925;-92
2021/07/27 18:44:22;;;;;;;;;;;;;;;6.91;100.00;99294.63;5006845;28;19921;-91
2021/07/27 18:46:47;;;;;;;;;;;;;;;6.91;100.00;99295.47;4998524;28;19925;-91
2021/07/27 18:49:13;;;;;;;;;;;;;;;6.98;100.00;99296.13;5019535;28;19949;-91
2021/07/27 18:51:38;;;;;;;;;;;;;;;6.93;100.00;99300.69;5020623;28;19936;-92
2021/07/27 18:54:04;;;;;;;;;;;;;;;6.86;100.00;99301.81;5006614;28;19925;-92
2021/07/27 18:56:30;;;;;;;;;;;;;;;6.89;100.00;99293.81;5004059;28;20029;-91
2021/07/27 18:58:55;;;;;;;;;;;;;;;6.85;100.00;99303.59;5004209;28;19925;-91
2021/07/27 19:01:21;;;;;;;;;;;;;;;6.93;100.00;99289.31;5004152;28;20015;-91
2021/07/27 19:03:46;;;;;;;;;;;;;;;6.91;100.00;99297.28;5004569;28;19921;-91
2021/07/27 19:06:12;;;;;;;;;;;;;;;6.95;100.00;99296.22;5017620;28;19932;-91
2021/07/27 19:08:37;;;;;;;;;;;;;;;6.96;100.00;99294.47;5007368;28;19921;-91
2021/07/27 19:11:03;;;;;;;;;;;;;;;7.00;100.00;99299.53;5022735;28;19925;-91
2021/07/27 19:13:29;;;;;;;;;;;;;;;6.99;100.00;99289.94;5021317;28;19929;-91
2021/07/27 19:15:55;;;;;;;;;;;;;;;6.89;100.00;99291.19;5005932;28;19984;-91
2021/07/27 19:18:21;;;;;;;;;;;;;;;6.94;100.00;99286.63;5021528;28;19932;-91
2021/07/27 19:20:54;;;;;;;;;;;;;;;6.90;100.00;99282.38;5005967;28;19921;-91
2021/07/27 19:23:29;;;;;;;;;;;;;;;6.96;100.00;99278.66;5004386;28;19921;-92
2021/07/27 19:25:55;;;;;;;;;;;;;;;7.00;100.00;99280.25;5008135;28;19928;-91
2021/07/27 19:28:38;;;;;;;;;;;;;;;6.90;100.00;99280.59;5001463;28;19921;-91
2021/07/27 19:31:36;;;;;;;;;;;;;;;6.94;100.00;99284.00;5022361;28;19961;-93
2021/07/27 19:34:09;;;;;;;;;;;;;;;6.89;100.00;99278.00;4979248;28;19941;-90
2021/07/27 19:36:34;;;;;;;;;;;;;;;6.96;100.00;99283.94;5006212;28;19964;-91
2021/07/27 19:39:00;;;;;;;;;;;;;;;6.91;100.00;99286.72;5008351;28;19921;-91
2021/07/27 19:41:28;;;;;;;;;;;;;;;6.91;100.00;99290.22;5019373;28;19953;-91
2021/07/27 19:43:56;;;;;;;;;;;;;;;6.92;100.00;99288.44;5004803;28;19921;-91
2021/07/27 19:46:40;;;;;;;;;;;;;;;6.90;100.00;99282.38;5018898;28;19988;-91
2021/07/27 19:51:34;;;;;;;;;;;;;;;6.87;100.00;99303.53;5020654;28;19933;-90
2021/07/27 19:53:59;;;;;;;;;;;;;;;6.90;100.00;99300.81;5005467;28;19925;-89
2021/07/27 19:56:34;;;;;;;;;;;;;;;6.88;100.00;99306.13;5008774;28;19921;-90
2021/07/27 19:58:59;;;;;;;;;;;;;;;6.98;100.00;99311.06;4994996;28;19930;-90
2021/07/27 20:01:24;;;;;;;;;;;;;;;6.89;100.00;99309.59;5004646;28;19921;-92
2021/07/27 20:03:50;;;;;;;;;;;;;;;6.87;100.00;99312.28;5010195;28;20028;-91
2021/07/27 20:06:16;;;;;;;;;;;;;;;6.84;100.00;99314.19;5003233;28;19921;-91
2021/07/27 20:08:45;;;;;;;;;;;;;;;6.96;100.00;99316.41;5013539;28;19921;-92
2021/07/27 20:11:10;;;;;;;;;;;;;;;6.94;100.00;99319.97;5009994;28;20115;-90
2021/07/27 20:13:35;;;;;;;;;;;;;;;6.91;100.00;99315.72;5006987;28;19952;-90
2021/07/27 20:16:05;;;;;;;;;;;;;;;6.87;100.00;99322.81;5005565;28;19925;-91
2021/07/27 20:18:31;;;;;;;;;;;;;;;6.90;100.00;99316.59;5022138;28;19922;-90